Time;durP1;ratioP1;P1;durP2;ratioP2;P2;SDS_P1;SDS_P2;PMS_P1;PMS_P2;Temp;Humidity;BMP_temperature;BMP_pressure;BME280_temperature;BME280_humidity;BME280_pressure;Samples;Min_cycle;Max_cycle;Signal;HPM_P1;HPM_P2
2021/12/18 00:02:15;;;;;;;0.60;0.60;;;6.80;99.90;;;;;;5050466;28;20036;-93
2021/12/18 00:04:41;;;;;;;0.60;0.60;;;6.80;99.90;;;;;;5051143;28;20032;-93
2021/12/18 00:07:07;;;;;;;0.60;0.60;;;6.80;99.90;;;;;;5050935;28;20041;-93
2021/12/18 00:09:33;;;;;;;0.60;0.60;;;6.80;99.90;;;;;;5051105;28;20044;-93
2021/12/18 00:12:02;;;;;;;0.70;0.70;;;6.80;99.90;;;;;;5058985;28;20101;-93
2021/12/18 00:14:27;;;;;;;0.60;0.60;;;6.80;99.90;;;;;;5054956;28;20044;-92
2021/12/18 00:16:53;;;;;;;0.60;0.60;;;6.70;99.90;;;;;;5050489;28;20059;-92
2021/12/18 00:19:24;;;;;;;0.60;0.60;;;6.70;99.90;;;;;;5058433;28;20043;-92
2021/12/18 00:21:50;;;;;;;0.60;0.60;;;6.70;99.90;;;;;;5045949;28;20036;-93
2021/12/18 00:24:16;;;;;;;0.60;0.60;;;6.60;99.90;;;;;;5050348;28;20051;-92
2021/12/18 00:26:41;;;;;;;0.60;0.60;;;6.60;99.90;;;;;;5054788;28;20052;-93
2021/12/18 00:29:07;;;;;;;0.60;0.60;;;6.70;99.90;;;;;;5050804;28;20055;-92
2021/12/18 00:31:32;;;;;;;0.55;0.55;;;6.60;99.90;;;;;;5051653;28;20036;-91
2021/12/18 00:33:58;;;;;;;0.60;0.60;;;6.60;99.90;;;;;;5044251;28;20041;-91
2021/12/18 00:36:24;;;;;;;0.60;0.60;;;6.60;99.90;;;;;;5063926;28;20086;-91
2021/12/18 00:38:50;;;;;;;0.65;0.65;;;6.60;99.90;;;;;;5050051;28;20108;-91
2021/12/18 00:41:35;;;;;;;0.60;0.60;;;6.60;99.90;;;;;;5049161;28;20057;-92
2021/12/18 00:44:04;;;;;;;0.63;0.63;;;6.60;99.90;;;;;;5036786;28;20063;-90
2021/12/18 00:46:35;;;;;;;0.68;0.68;;;6.70;99.90;;;;;;5044905;28;20424;-89
2021/12/18 00:49:02;;;;;;;0.60;0.60;;;6.60;99.90;;;;;;5051730;28;20115;-91
2021/12/18 00:51:28;;;;;;;0.70;0.70;;;6.60;99.90;;;;;;5049599;28;20043;-91
2021/12/18 00:53:53;;;;;;;0.68;0.68;;;6.60;99.90;;;;;;5046605;28;20095;-91
2021/12/18 00:56:19;;;;;;;0.60;0.60;;;6.50;99.90;;;;;;5049133;28;20060;-92
2021/12/18 00:58:45;;;;;;;0.60;0.60;;;6.50;99.90;;;;;;5056648;28;20059;-92
2021/12/18 01:01:12;;;;;;;0.60;0.60;;;6.50;99.90;;;;;;5055772;28;20044;-89
2021/12/18 01:03:39;;;;;;;0.60;0.60;;;6.50;99.90;;;;;;5049720;28;20045;-91
2021/12/18 01:06:05;;;;;;;0.60;0.60;;;6.50;99.90;;;;;;5049334;28;20044;-91
2021/12/18 01:08:31;;;;;;;0.60;0.60;;;6.60;99.90;;;;;;5050118;28;20119;-90
2021/12/18 01:11:32;;;;;;;0.98;0.98;;;6.50;99.90;;;;;;5050098;28;20055;-91
2021/12/18 01:16:24;;;;;;;0.60;0.60;;;6.40;99.90;;;;;;5066734;28;20063;-91
2021/12/18 01:24:18;;;;;;;0.63;0.63;;;6.40;99.90;;;;;;5066377;28;20048;-92
2021/12/18 01:26:44;;;;;;;0.60;0.60;;;6.30;99.90;;;;;;5049207;28;20048;-91
2021/12/18 01:29:10;;;;;;;0.68;0.68;;;6.40;99.90;;;;;;5054401;28;20067;-92
2021/12/18 01:31:35;;;;;;;0.60;0.60;;;6.40;99.90;;;;;;5048805;28;20092;-92
2021/12/18 01:34:01;;;;;;;0.60;0.60;;;6.30;99.90;;;;;;5049025;28;20047;-91
2021/12/18 01:36:29;;;;;;;0.60;0.60;;;6.30;99.90;;;;;;5049598;28;20070;-92
2021/12/18 01:38:56;;;;;;;2.15;0.80;;;6.30;99.90;;;;;;5049498;28;20055;-92
2021/12/18 01:41:22;;;;;;;1.08;1.05;;;6.40;99.90;;;;;;5045576;28;20044;-91
2021/12/18 01:44:34;;;;;;;0.80;0.80;;;6.30;99.90;;;;;;5049435;28;20040;-92
2021/12/18 01:47:05;;;;;;;0.60;0.60;;;6.40;99.90;;;;;;5053210;28;20056;-92
2021/12/18 01:52:19;;;;;;;;;;;6.40;99.90;;;;;;5061510;28;20041;-92
2021/12/18 01:54:46;;;;;;;0.60;0.60;;;6.40;99.90;;;;;;5055392;28;19968;-92
2021/12/18 01:57:12;;;;;;;0.60;0.60;;;6.40;99.90;;;;;;5058359;28;20058;-93
2021/12/18 01:59:45;;;;;;;0.60;0.60;;;6.40;99.90;;;;;;5049506;28;20087;-92
2021/12/18 02:02:12;;;;;;;0.63;0.63;;;6.40;99.90;;;;;;5039827;28;20076;-92
2021/12/18 02:04:38;;;;;;;0.60;0.60;;;6.40;99.90;;;;;;5047328;28;20059;-92
2021/12/18 02:07:04;;;;;;;0.60;0.60;;;6.40;99.90;;;;;;5049051;28;20316;-92
2021/12/18 02:20:46;;;;;;;;;;;6.40;99.90;;;;;;5057416;28;20049;-90
2021/12/18 02:23:12;;;;;;;0.80;0.80;;;6.40;99.90;;;;;;5047352;28;19920;-90
2021/12/18 02:25:39;;;;;;;0.60;0.60;;;6.40;99.90;;;;;;5045207;28;20052;-91
2021/12/18 02:28:12;;;;;;;0.60;0.60;;;6.30;99.90;;;;;;5034583;28;20028;-92
2021/12/18 02:30:38;;;;;;;0.60;0.60;;;6.30;99.90;;;;;;5048401;28;20067;-91
2021/12/18 02:33:04;;;;;;;0.60;0.60;;;6.30;99.90;;;;;;5038892;28;20133;-92
2021/12/18 02:35:40;;;;;;;0.50;0.50;;;6.50;99.90;;;;;;5041286;28;20049;-92
2021/12/18 02:38:11;;;;;;;0.60;0.60;;;6.30;99.90;;;;;;5033092;28;20033;-92
2021/12/18 02:43:12;;;;;;;0.60;0.60;;;6.30;99.90;;;;;;5054221;28;20075;-92
2021/12/18 02:45:38;;;;;;;0.60;0.60;;;6.30;99.90;;;;;;5033169;28;20056;-92
2021/12/18 02:48:04;;;;;;;0.55;0.55;;;6.40;99.90;;;;;;5048032;28;20036;-92
2021/12/18 02:50:29;;;;;;;0.60;0.60;;;6.40;99.90;;;;;;5047641;28;20083;-92
2021/12/18 02:52:55;;;;;;;0.70;0.70;;;6.40;99.90;;;;;;5047671;28;20037;-90
2021/12/18 02:55:21;;;;;;;0.60;0.60;;;6.30;99.90;;;;;;5048190;28;20048;-91
2021/12/18 02:57:46;;;;;;;0.60;0.60;;;6.40;99.90;;;;;;5047483;28;20453;-92
2021/12/18 03:00:12;;;;;;;0.85;0.85;;;6.40;99.90;;;;;;5047394;28;20132;-93
2021/12/18 03:02:44;;;;;;;0.60;0.60;;;6.40;99.90;;;;;;5047215;28;20048;-91
2021/12/18 03:05:16;;;;;;;0.60;0.60;;;6.40;99.90;;;;;;5043016;28;20097;-91
2021/12/18 03:07:44;;;;;;;0.60;0.60;;;6.40;99.90;;;;;;5042152;28;20343;-90
2021/12/18 03:25:59;;;;;;;0.60;0.60;;;6.40;99.90;;;;;;5064411;28;20040;-91
2021/12/18 03:28:26;;;;;;;1.30;0.93;;;6.40;99.90;;;;;;5048185;28;20049;-92
2021/12/18 03:30:55;;;;;;;0.60;0.60;;;6.40;99.90;;;;;;5047114;28;20040;-91
2021/12/18 03:33:21;;;;;;;0.70;0.70;;;6.40;99.90;;;;;;5063693;28;20108;-92
2021/12/18 03:35:47;;;;;;;0.60;0.60;;;6.50;99.90;;;;;;5045624;28;20048;-91
2021/12/18 03:38:13;;;;;;;0.60;0.60;;;6.90;99.90;;;;;;5048838;28;20044;-91
2021/12/18 03:40:38;;;;;;;0.80;0.80;;;6.30;99.90;;;;;;5051343;28;20045;-91
2021/12/18 03:43:04;;;;;;;0.60;0.60;;;6.30;99.90;;;;;;5047386;28;20040;-91
2021/12/18 03:45:30;;;;;;;0.60;0.60;;;6.30;99.90;;;;;;5047044;28;20036;-91
2021/12/18 03:47:56;;;;;;;0.60;0.60;;;6.30;99.90;;;;;;5046614;28;20036;-91
2021/12/18 03:50:22;;;;;;;0.60;0.60;;;6.30;99.90;;;;;;5048468;28;20045;-91
2021/12/18 03:52:48;;;;;;;0.60;0.60;;;6.30;99.90;;;;;;5046879;28;20040;-91
2021/12/18 03:55:14;;;;;;;0.60;0.60;;;6.30;99.90;;;;;;5047717;28;20066;-91
2021/12/18 03:57:40;;;;;;;0.50;0.50;;;6.30;99.90;;;;;;5047320;28;20100;-91
2021/12/18 04:00:09;;;;;;;0.57;0.57;;;6.30;99.90;;;;;;5047516;28;20123;-91
2021/12/18 04:02:35;;;;;;;0.60;0.60;;;6.30;99.90;;;;;;5044172;28;20041;-90
2021/12/18 04:05:00;;;;;;;0.60;0.60;;;6.40;99.90;;;;;;5047445;28;20033;-91
2021/12/18 04:07:26;;;;;;;0.60;0.60;;;6.30;99.90;;;;;;5047199;28;20398;-91
2021/12/18 04:09:52;;;;;;;0.57;0.57;;;6.30;99.90;;;;;;5047632;28;20047;-91
2021/12/18 04:12:17;;;;;;;0.60;0.60;;;6.30;99.90;;;;;;5047255;28;20039;-91
2021/12/18 04:14:43;;;;;;;0.63;0.63;;;6.30;99.90;;;;;;5047113;28;20056;-91
2021/12/18 04:17:09;;;;;;;0.60;0.60;;;6.30;99.90;;;;;;5047120;28;20094;-91
2021/12/18 04:19:35;;;;;;;0.60;0.60;;;6.30;99.90;;;;;;5047103;28;20049;-91
2021/12/18 04:22:01;;;;;;;0.60;0.60;;;6.30;99.90;;;;;;5046565;28;20057;-91
2021/12/18 04:24:27;;;;;;;0.70;0.70;;;6.30;99.90;;;;;;5046062;28;20052;-91
2021/12/18 04:26:53;;;;;;;0.63;0.63;;;6.30;99.90;;;;;;5047802;28;20041;-91
2021/12/18 04:29:18;;;;;;;0.60;0.60;;;6.30;99.90;;;;;;5051216;28;20051;-91
2021/12/18 04:31:44;;;;;;;0.60;0.60;;;6.30;99.90;;;;;;5049360;28;20127;-91
2021/12/18 04:34:10;;;;;;;0.57;0.57;;;6.30;99.90;;;;;;5056052;28;20041;-92
2021/12/18 04:36:36;;;;;;;0.60;0.60;;;6.30;99.90;;;;;;5055593;28;20055;-91
2021/12/18 04:39:03;;;;;;;0.60;0.60;;;6.30;99.90;;;;;;5050504;28;20192;-92
2021/12/18 04:41:43;;;;;;;0.60;0.60;;;6.30;99.90;;;;;;5050157;28;20040;-91
2021/12/18 04:44:09;;;;;;;0.85;0.80;;;6.30;99.90;;;;;;5049847;28;20150;-92
2021/12/18 04:46:35;;;;;;;0.60;0.60;;;6.30;99.90;;;;;;5053510;28;20140;-91
2021/12/18 04:49:00;;;;;;;0.60;0.60;;;6.30;99.90;;;;;;5049911;28;20230;-91
2021/12/18 04:51:26;;;;;;;0.50;0.50;;;6.30;99.90;;;;;;5066208;28;20093;-90
2021/12/18 04:53:52;;;;;;;0.63;0.63;;;6.40;99.90;;;;;;5050027;28;20551;-90
2021/12/18 04:56:18;;;;;;;0.60;0.60;;;6.30;99.90;;;;;;5046900;28;20029;-91
2021/12/18 04:58:43;;;;;;;0.60;0.60;;;6.40;99.90;;;;;;5048686;28;20044;-90
2021/12/18 05:01:09;;;;;;;0.60;0.60;;;6.40;99.90;;;;;;5049657;28;20082;-90
2021/12/18 05:03:36;;;;;;;0.60;0.60;;;6.40;99.90;;;;;;5062731;28;20094;-91
2021/12/18 05:06:03;;;;;;;0.60;0.60;;;6.40;99.90;;;;;;5061279;28;20040;-91
2021/12/18 05:08:29;;;;;;;0.55;0.55;;;6.70;99.90;;;;;;5050042;28;20036;-91
2021/12/18 05:10:54;;;;;;;0.70;0.70;;;6.40;99.90;;;;;;5050042;28;20144;-91
2021/12/18 05:13:20;;;;;;;0.60;0.60;;;6.40;99.90;;;;;;5049816;28;20370;-90
2021/12/18 05:15:46;;;;;;;0.52;0.52;;;6.40;99.90;;;;;;5049495;28;20044;-90
2021/12/18 05:18:11;;;;;;;0.60;0.60;;;6.30;99.90;;;;;;5062631;28;20024;-90
2021/12/18 05:20:37;;;;;;;0.52;0.52;;;6.40;99.90;;;;;;5061191;28;20083;-90
2021/12/18 05:23:02;;;;;;;0.60;0.60;;;6.50;99.90;;;;;;5061282;28;20032;-91
2021/12/18 05:25:28;;;;;;;0.60;0.60;;;6.50;99.90;;;;;;5064122;28;20036;-90
2021/12/18 05:27:54;;;;;;;0.60;0.60;;;6.50;99.90;;;;;;5060743;28;20032;-92
2021/12/18 05:30:19;;;;;;;0.60;0.60;;;6.50;99.90;;;;;;5068691;28;20037;-91
2021/12/18 05:32:46;;;;;;;0.65;0.65;;;6.50;99.90;;;;;;5061245;28;20040;-92
2021/12/18 05:35:15;;;;;;;0.65;0.65;;;6.50;99.90;;;;;;5062627;28;20040;-92
2021/12/18 05:37:52;;;;;;;0.60;0.60;;;6.50;99.90;;;;;;5059250;28;20109;-90
2021/12/18 05:40:23;;;;;;;0.60;0.60;;;6.50;99.90;;;;;;5050746;28;20971;-90
2021/12/18 05:42:51;;;;;;;0.60;0.60;;;6.50;99.90;;;;;;5035123;28;20104;-90
2021/12/18 05:45:18;;;;;;;0.60;0.60;;;6.50;99.90;;;;;;5051442;28;20048;-91
2021/12/18 05:47:43;;;;;;;0.55;0.55;;;6.50;99.90;;;;;;5048950;28;20453;-91
2021/12/18 05:50:11;;;;;;;0.60;0.60;;;6.60;99.90;;;;;;5055510;28;20050;-90
2021/12/18 05:52:37;;;;;;;0.60;0.60;;;6.60;99.90;;;;;;5049966;28;20079;-90
2021/12/18 05:55:03;;;;;;;0.60;0.60;;;6.70;99.90;;;;;;5049699;28;20048;-91
2021/12/18 05:57:29;;;;;;;0.60;0.60;;;6.70;99.90;;;;;;5045927;28;20040;-90
2021/12/18 05:59:54;;;;;;;0.65;0.65;;;6.60;99.90;;;;;;5029521;28;20072;-90
2021/12/18 06:02:20;;;;;;;0.60;0.60;;;6.70;99.90;;;;;;5048345;28;20044;-91
2021/12/18 06:04:46;;;;;;;0.60;0.60;;;6.60;99.90;;;;;;5048752;28;20044;-90
2021/12/18 06:07:29;;;;;;;0.60;0.60;;;6.70;99.90;;;;;;5048655;28;20091;-89
2021/12/18 06:09:55;;;;;;;0.60;0.60;;;6.70;99.90;;;;;;5048696;28;20044;-91
2021/12/18 06:12:21;;;;;;;0.82;0.82;;;6.70;99.90;;;;;;5048262;28;20032;-90
2021/12/18 06:14:47;;;;;;;0.70;0.70;;;6.80;99.90;;;;;;5048580;28;20041;-92
2021/12/18 06:17:13;;;;;;;0.60;0.60;;;6.80;99.90;;;;;;5048313;28;20064;-91
2021/12/18 06:19:39;;;;;;;0.60;0.60;;;6.80;99.90;;;;;;5040880;28;20048;-91
2021/12/18 06:22:05;;;;;;;0.60;0.60;;;6.80;99.90;;;;;;5065276;28;20143;-91
2021/12/18 06:24:30;;;;;;;0.57;0.57;;;6.80;99.90;;;;;;5048244;28;20136;-91
2021/12/18 06:26:56;;;;;;;0.60;0.60;;;6.80;99.90;;;;;;5043930;28;20044;-91
2021/12/18 06:29:22;;;;;;;0.52;0.52;;;6.80;99.90;;;;;;5048799;28;20063;-92
2021/12/18 06:31:48;;;;;;;0.50;0.50;;;6.90;99.90;;;;;;5047697;28;20090;-93
2021/12/18 06:34:14;;;;;;;0.60;0.60;;;6.90;99.90;;;;;;5048711;28;20040;-93
2021/12/18 06:36:40;;;;;;;0.60;0.60;;;6.90;99.90;;;;;;5064460;28;20044;-90
2021/12/18 06:39:05;;;;;;;0.63;0.63;;;6.90;99.90;;;;;;5048311;28;20044;-90
2021/12/18 06:41:31;;;;;;;0.50;0.50;;;6.90;99.90;;;;;;5047649;28;20128;-91
2021/12/18 06:43:57;;;;;;;0.50;0.50;;;6.90;99.90;;;;;;5047950;28;20520;-91
2021/12/18 06:46:22;;;;;;;0.60;0.60;;;7.00;99.90;;;;;;5048028;28;20062;-90
2021/12/18 06:48:48;;;;;;;0.50;0.50;;;7.00;99.90;;;;;;5047261;28;20036;-91
2021/12/18 06:51:17;;;;;;;0.60;0.60;;;7.00;99.90;;;;;;5045950;28;20044;-91
2021/12/18 06:53:42;;;;;;;0.50;0.50;;;7.00;99.90;;;;;;5047633;28;20472;-91
2021/12/18 06:56:08;;;;;;;0.50;0.50;;;7.00;99.90;;;;;;5047681;28;20047;-91
2021/12/18 06:58:33;;;;;;;0.60;0.60;;;7.00;99.90;;;;;;5052080;28;20070;-90
2021/12/18 07:00:59;;;;;;;0.60;0.60;;;7.00;99.90;;;;;;5042412;28;20041;-91
2021/12/18 07:03:25;;;;;;;0.60;0.60;;;7.10;99.90;;;;;;5041375;28;20032;-91
2021/12/18 07:05:51;;;;;;;0.52;0.52;;;7.10;99.90;;;;;;5039569;28;20123;-91
2021/12/18 07:08:17;;;;;;;0.70;0.70;;;7.10;99.90;;;;;;5048113;28;20036;-92
2021/12/18 07:10:43;;;;;;;0.70;0.70;;;7.10;99.90;;;;;;5047973;28;20040;-92
2021/12/18 07:13:09;;;;;;;0.50;0.50;;;7.10;99.90;;;;;;5054636;28;20066;-91
2021/12/18 07:15:34;;;;;;;0.60;0.60;;;7.20;99.90;;;;;;5049166;28;20048;-91
2021/12/18 07:18:00;;;;;;;0.80;0.80;;;7.20;99.90;;;;;;5044179;28;20032;-91
2021/12/18 07:20:27;;;;;;;0.70;0.70;;;7.20;99.90;;;;;;5032213;28;20045;-91
2021/12/18 07:22:53;;;;;;;0.60;0.60;;;7.20;99.90;;;;;;5047555;28;20071;-91
2021/12/18 07:25:19;;;;;;;1.08;0.98;;;7.20;99.90;;;;;;5054225;28;20025;-91
2021/12/18 07:27:45;;;;;;;0.70;0.70;;;7.30;99.90;;;;;;5056064;28;20082;-91
2021/12/18 07:30:12;;;;;;;0.68;0.68;;;7.20;99.90;;;;;;5055190;28;20102;-91
2021/12/18 07:32:38;;;;;;;0.50;0.50;;;7.30;99.90;;;;;;5046250;28;20047;-91
2021/12/18 07:35:05;;;;;;;0.60;0.60;;;7.30;99.90;;;;;;5061071;28;20649;-91
2021/12/18 07:37:31;;;;;;;0.68;0.68;;;7.30;99.90;;;;;;5046795;28;20048;-91
2021/12/18 07:39:56;;;;;;;0.57;0.57;;;7.30;99.90;;;;;;5047491;28;20099;-90
2021/12/18 07:42:22;;;;;;;0.60;0.60;;;7.30;99.90;;;;;;5050418;28;20052;-91
2021/12/18 07:44:48;;;;;;;0.50;0.50;;;7.30;99.90;;;;;;5046654;28;20033;-91
2021/12/18 07:47:13;;;;;;;0.50;0.50;;;7.30;99.90;;;;;;5046946;28;20104;-91
2021/12/18 07:49:39;;;;;;;0.60;0.60;;;7.30;99.90;;;;;;5049390;28;20073;-91
2021/12/18 07:52:05;;;;;;;0.60;0.60;;;7.30;99.90;;;;;;5049217;28;20032;-91
2021/12/18 07:54:31;;;;;;;0.57;0.57;;;7.30;99.90;;;;;;5039500;28;20060;-91
2021/12/18 07:56:57;;;;;;;0.60;0.60;;;7.30;99.90;;;;;;5051385;28;20448;-92
2021/12/18 07:59:23;;;;;;;0.50;0.50;;;7.30;99.90;;;;;;5063109;28;20051;-92
2021/12/18 08:01:49;;;;;;;0.60;0.60;;;7.30;99.90;;;;;;5050575;28;20068;-91
2021/12/18 08:04:14;;;;;;;0.50;0.50;;;7.30;99.90;;;;;;5057993;28;20099;-91
2021/12/18 08:06:40;;;;;;;0.60;0.60;;;7.30;99.90;;;;;;5051246;28;20055;-91
2021/12/18 08:09:06;;;;;;;0.60;0.60;;;7.30;99.90;;;;;;5051301;28;20091;-91
2021/12/18 08:11:32;;;;;;;0.60;0.60;;;7.30;99.90;;;;;;5060285;28;20059;-92
2021/12/18 08:13:57;;;;;;;0.50;0.50;;;7.30;99.90;;;;;;5063070;28;20072;-92
2021/12/18 08:16:23;;;;;;;0.80;0.80;;;7.30;99.90;;;;;;5057641;28;20040;-92
2021/12/18 08:18:48;;;;;;;0.70;0.70;;;7.30;99.90;;;;;;5058264;28;20052;-93
2021/12/18 08:21:14;;;;;;;0.50;0.50;;;7.40;99.90;;;;;;5055332;28;20089;-91
2021/12/18 08:23:40;;;;;;;0.50;0.50;;;7.30;99.90;;;;;;5050926;28;20413;-92
2021/12/18 08:26:06;;;;;;;0.60;0.60;;;7.40;99.90;;;;;;5057881;28;20032;-92
2021/12/18 08:28:31;;;;;;;0.60;0.60;;;7.40;99.90;;;;;;5048275;28;20167;-91
2021/12/18 08:30:57;;;;;;;0.60;0.60;;;7.40;99.90;;;;;;5039129;28;20154;-92
2021/12/18 08:33:23;;;;;;;4.13;0.80;;;7.40;99.90;;;;;;5050451;28;20076;-93
2021/12/18 08:35:48;;;;;;;0.60;0.60;;;7.40;99.90;;;;;;5055541;28;20047;-93
2021/12/18 08:38:14;;;;;;;0.50;0.50;;;7.50;99.90;;;;;;5077196;28;20037;-92
2021/12/18 08:40:41;;;;;;;1.15;1.05;;;7.50;99.90;;;;;;5050302;28;20044;-92
2021/12/18 08:43:07;;;;;;;0.60;0.60;;;7.50;99.90;;;;;;5062609;28;20100;-93
2021/12/18 08:45:33;;;;;;;0.60;0.60;;;7.50;99.90;;;;;;5069372;28;20059;-93
2021/12/18 08:47:59;;;;;;;0.50;0.50;;;7.50;99.90;;;;;;5050335;28;20522;-92
2021/12/18 08:50:25;;;;;;;0.70;0.70;;;7.60;99.90;;;;;;5062859;28;20048;-92
2021/12/18 08:52:50;;;;;;;0.60;0.60;;;7.50;99.90;;;;;;5054126;28;20040;-93
2021/12/18 08:55:18;;;;;;;0.60;0.60;;;7.60;99.90;;;;;;5051714;28;20036;-92
2021/12/18 08:57:44;;;;;;;0.70;0.70;;;7.60;99.90;;;;;;5051730;28;20219;-92
2021/12/18 09:00:13;;;;;;;0.52;0.52;;;7.60;99.90;;;;;;5046960;28;20049;-93
2021/12/18 09:02:40;;;;;;;0.60;0.60;;;7.70;99.90;;;;;;5058287;28;20065;-93
2021/12/18 09:05:07;;;;;;;0.60;0.60;;;7.70;99.90;;;;;;5061058;28;20041;-90
2021/12/18 09:07:32;;;;;;;0.60;0.60;;;7.70;99.90;;;;;;5049872;28;20461;-92
2021/12/18 09:09:58;;;;;;;0.52;0.52;;;7.70;99.90;;;;;;5060832;28;20055;-94
2021/12/18 09:12:25;;;;;;;0.57;0.57;;;7.70;99.90;;;;;;5048896;28;20040;-92
2021/12/18 09:14:51;;;;;;;0.52;0.52;;;7.70;99.90;;;;;;5044963;28;20064;-92
2021/12/18 09:17:16;;;;;;;0.60;0.60;;;7.70;99.90;;;;;;5048891;28;20111;-93
2021/12/18 09:19:42;;;;;;;0.60;0.60;;;7.80;99.90;;;;;;5049525;28;20048;-92
2021/12/18 09:22:09;;;;;;;0.60;0.60;;;7.70;99.90;;;;;;5057232;28;20072;-92
2021/12/18 09:24:35;;;;;;;0.60;0.60;;;7.80;99.90;;;;;;5049638;28;20045;-91
2021/12/18 09:27:00;;;;;;;0.70;0.70;;;7.90;99.90;;;;;;5040059;28;20539;-92
2021/12/18 09:29:26;;;;;;;0.50;0.50;;;7.90;99.90;;;;;;5052392;28;20064;-92
2021/12/18 09:31:52;;;;;;;0.60;0.60;;;7.90;99.90;;;;;;5049117;28;20138;-92
2021/12/18 09:34:17;;;;;;;0.50;0.50;;;7.90;99.90;;;;;;5051338;28;20100;-92
2021/12/18 09:36:43;;;;;;;0.60;0.60;;;7.90;99.90;;;;;;5057538;28;20047;-92
2021/12/18 09:39:09;;;;;;;0.60;0.60;;;8.00;99.90;;;;;;5049606;28;20123;-93
2021/12/18 09:41:36;;;;;;;0.52;0.52;;;8.00;99.90;;;;;;5048919;28;20044;-92
2021/12/18 09:44:02;;;;;;;0.70;0.70;;;8.00;99.90;;;;;;5045225;28;20036;-93
2021/12/18 09:46:30;;;;;;;0.60;0.60;;;8.00;99.90;;;;;;5048772;28;20139;-92
2021/12/18 09:48:57;;;;;;;1.25;1.17;;;8.00;99.90;;;;;;5053905;28;20654;-92
2021/12/18 09:51:27;;;;;;;0.60;0.60;;;8.10;99.90;;;;;;5049160;28;20097;-93
2021/12/18 09:53:54;;;;;;;0.50;0.50;;;8.00;99.90;;;;;;5052591;28;20051;-92
2021/12/18 09:56:21;;;;;;;0.60;0.60;;;8.00;99.90;;;;;;5048542;28;20143;-92
2021/12/18 09:58:47;;;;;;;0.60;0.60;;;8.00;99.90;;;;;;5048277;28;20059;-92
2021/12/18 10:01:13;;;;;;;0.60;0.60;;;8.00;99.90;;;;;;5049278;28;20040;-93
2021/12/18 10:03:54;;;;;;;0.60;0.60;;;8.00;99.90;;;;;;5054072;28;20412;-92
2021/12/18 10:06:29;;;;;;;1.27;1.20;;;8.00;99.90;;;;;;5062154;28;20050;-92
2021/12/18 10:08:54;;;;;;;0.60;0.60;;;8.00;99.90;;;;;;5039620;28;20071;-93
2021/12/18 10:11:20;;;;;;;0.60;0.60;;;8.00;99.90;;;;;;5043385;28;20041;-93
2021/12/18 10:14:03;;;;;;;1.05;1.05;;;8.00;99.90;;;;;;5037761;28;20090;-92
2021/12/18 10:16:30;;;;;;;0.57;0.57;;;8.00;99.90;;;;;;5047807;28;20078;-92
2021/12/18 10:18:57;;;;;;;0.60;0.60;;;8.10;99.90;;;;;;5044475;28;20291;-93
2021/12/18 10:21:26;;;;;;;0.90;0.90;;;8.10;99.90;;;;;;5044556;28;21246;-93
2021/12/18 10:23:52;;;;;;;0.50;0.50;;;8.10;99.90;;;;;;5046924;28;20048;-93
2021/12/18 10:26:47;;;;;;;0.80;0.80;;;8.10;99.90;;;;;;5046176;28;20040;-92
2021/12/18 10:29:42;;;;;;;0.80;0.80;;;8.10;99.90;;;;;;5044862;28;20429;-92
2021/12/18 10:32:17;;;;;;;0.70;0.70;;;8.10;99.90;;;;;;5050647;28;20048;-93
2021/12/18 10:34:53;;;;;;;0.55;0.55;;;8.10;99.90;;;;;;5043616;28;20464;-92
2021/12/18 10:37:20;;;;;;;0.60;0.60;;;8.10;99.90;;;;;;5043369;28;20096;-89
2021/12/18 10:40:11;;;;;;;0.60;0.60;;;8.10;99.90;;;;;;5046503;28;20036;-89
2021/12/18 10:42:49;;;;;;;0.60;0.60;;;8.10;99.90;;;;;;5045904;28;20048;-90
2021/12/18 10:45:25;;;;;;;0.60;0.60;;;8.10;99.90;;;;;;5042356;28;20128;-89
2021/12/18 10:48:01;;;;;;;0.60;0.60;;;8.20;99.90;;;;;;5046856;28;20032;-92
2021/12/18 10:50:41;;;;;;;0.60;0.60;;;8.20;99.90;;;;;;5048156;28;20040;-92
2021/12/18 10:53:22;;;;;;;0.50;0.50;;;8.10;99.90;;;;;;5047428;28;20108;-92
2021/12/18 10:55:54;;;;;;;0.60;0.60;;;8.20;99.90;;;;;;5046412;28;20029;-91
2021/12/18 10:58:21;;;;;;;0.63;0.63;;;8.30;99.90;;;;;;5047261;28;20045;-90
2021/12/18 11:00:49;;;;;;;0.50;0.50;;;8.20;99.90;;;;;;5046968;28;20051;-91
2021/12/18 11:03:31;;;;;;;0.68;0.68;;;8.30;99.90;;;;;;5040300;28;20123;-92
2021/12/18 11:06:20;;;;;;;0.60;0.60;;;8.30;99.90;;;;;;5046304;28;20052;-92
2021/12/18 11:09:04;;;;;;;0.60;0.60;;;8.30;99.90;;;;;;5045915;28;20045;-91
2021/12/18 11:14:10;;;;;;;0.50;0.50;;;8.30;99.90;;;;;;5071662;28;20048;-92
2021/12/18 11:16:37;;;;;;;0.60;0.60;;;8.40;99.90;;;;;;5051012;28;20040;-92
2021/12/18 11:19:12;;;;;;;0.50;0.50;;;8.40;99.90;;;;;;5047480;28;20259;-91
2021/12/18 11:21:46;;;;;;;0.52;0.52;;;8.40;99.90;;;;;;5044211;28;20044;-92
2021/12/18 11:24:13;;;;;;;0.60;0.60;;;8.40;99.90;;;;;;5044376;28;20065;-92
2021/12/18 11:26:42;;;;;;;0.63;0.63;;;8.40;99.90;;;;;;5045663;28;20045;-92
2021/12/18 11:29:13;;;;;;;0.50;0.50;;;8.40;99.90;;;;;;5046636;28;20046;-92
2021/12/18 11:31:41;;;;;;;0.77;0.70;;;8.50;99.90;;;;;;5047206;28;20060;-91
2021/12/18 11:34:07;;;;;;;0.60;0.60;;;8.50;99.90;;;;;;5067760;28;20036;-92
2021/12/18 11:36:37;;;;;;;0.60;0.60;;;8.50;99.90;;;;;;5066237;28;20048;-91
2021/12/18 11:39:02;;;;;;;0.80;0.80;;;8.50;99.90;;;;;;5047931;28;20135;-91
2021/12/18 11:41:28;;;;;;;0.50;0.50;;;8.50;99.90;;;;;;5044191;28;20177;-90
2021/12/18 11:43:54;;;;;;;0.90;0.90;;;8.50;99.90;;;;;;5050760;28;20096;-91
2021/12/18 11:46:32;;;;;;;0.60;0.60;;;8.60;99.90;;;;;;5044600;28;20045;-90
2021/12/18 11:49:09;;;;;;;0.70;0.70;;;8.50;99.90;;;;;;5049418;28;20055;-91
2021/12/18 11:51:36;;;;;;;0.50;0.50;;;8.60;99.90;;;;;;5049605;28;20056;-92
2021/12/18 11:54:06;;;;;;;0.60;0.60;;;8.60;99.90;;;;;;5038914;28;20047;-91
2021/12/18 11:56:50;;;;;;;0.60;0.60;;;8.70;99.90;;;;;;5050537;28;20033;-92
2021/12/18 11:59:37;;;;;;;0.60;0.60;;;8.60;99.90;;;;;;5046321;28;20112;-89
2021/12/18 12:02:04;;;;;;;0.50;0.50;;;8.60;99.90;;;;;;5042681;28;20048;-91
2021/12/18 12:05:03;;;;;;;0.50;0.50;;;8.60;99.90;;;;;;5048914;28;20087;-89
2021/12/18 12:07:29;;;;;;;0.57;0.57;;;8.70;99.90;;;;;;5050539;28;20142;-89
2021/12/18 12:10:34;;;;;;;0.50;0.50;;;8.60;99.90;;;;;;5045916;28;20048;-91
2021/12/18 12:13:02;;;;;;;0.60;0.60;;;8.70;99.90;;;;;;5071384;28;20040;-90
2021/12/18 12:15:28;;;;;;;0.50;0.50;;;8.70;99.90;;;;;;5050196;28;20083;-91
2021/12/18 12:18:08;;;;;;;0.60;0.60;;;8.70;99.90;;;;;;5049691;28;20060;-91
2021/12/18 12:20:42;;;;;;;0.60;0.60;;;8.70;99.90;;;;;;5046394;28;20072;-90
2021/12/18 12:23:12;;;;;;;1.55;1.45;;;8.70;99.90;;;;;;5043588;28;20060;-91
2021/12/18 12:25:44;;;;;;;0.70;0.70;;;8.80;99.90;;;;;;5048140;28;20047;-89
2021/12/18 12:28:23;;;;;;;0.60;0.60;;;8.70;99.90;;;;;;5053564;28;20098;-90
2021/12/18 12:30:58;;;;;;;0.60;0.60;;;8.70;99.90;;;;;;5047676;28;20052;-89
2021/12/18 12:33:29;;;;;;;4.38;1.35;;;8.60;99.90;;;;;;5050659;28;20040;-90
2021/12/18 12:36:11;;;;;;;0.60;0.60;;;8.60;99.90;;;;;;5041194;28;20075;-91
2021/12/18 12:38:40;;;;;;;0.60;0.60;;;8.70;99.90;;;;;;5038642;28;20124;-90
2021/12/18 12:41:32;;;;;;;0.57;0.57;;;8.60;99.90;;;;;;5046059;28;20116;-91
2021/12/18 12:44:04;;;;;;;2.25;2.05;;;8.70;99.90;;;;;;5043683;28;20070;-91
2021/12/18 12:46:31;;;;;;;0.47;0.47;;;8.70;99.90;;;;;;5052166;28;20040;-90
2021/12/18 12:49:00;;;;;;;0.60;0.60;;;8.70;99.90;;;;;;5047543;28;20040;-91
2021/12/18 12:51:47;;;;;;;0.68;0.68;;;8.70;99.90;;;;;;5041563;28;20068;-91
2021/12/18 12:54:45;;;;;;;0.60;0.60;;;8.70;99.90;;;;;;5048229;28;20048;-89
2021/12/18 12:57:23;;;;;;;0.60;0.60;;;8.70;99.90;;;;;;5053598;28;20044;-88
2021/12/18 13:00:08;;;;;;;0.70;0.70;;;8.70;99.90;;;;;;5047856;28;20036;-92
2021/12/18 13:02:37;;;;;;;0.60;0.60;;;8.60;99.90;;;;;;5054712;28;20036;-87
2021/12/18 13:05:06;;;;;;;0.60;0.60;;;8.60;99.90;;;;;;5055194;28;20070;-87
2021/12/18 13:07:32;;;;;;;0.50;0.50;;;8.60;99.90;;;;;;5051689;28;20051;-87
2021/12/18 13:09:58;;;;;;;0.60;0.60;;;8.70;99.90;;;;;;5068053;28;20345;-88
2021/12/18 13:12:23;;;;;;;0.60;0.60;;;8.60;99.90;;;;;;5044248;28;20067;-88
2021/12/18 13:14:49;;;;;;;0.50;0.50;;;8.70;99.90;;;;;;5064606;28;20040;-88
2021/12/18 13:17:17;;;;;;;0.60;0.60;;;8.60;99.90;;;;;;5049352;28;20047;-88
2021/12/18 13:19:57;;;;;;;0.60;0.60;;;8.60;99.90;;;;;;5051664;28;20047;-87
2021/12/18 13:22:29;;;;;;;1.20;1.02;;;8.60;99.90;;;;;;5056455;28;20064;-88
2021/12/18 13:25:11;;;;;;;0.60;0.60;;;8.60;99.90;;;;;;5040345;28;20047;-87
2021/12/18 13:27:39;;;;;;;0.60;0.60;;;8.60;99.90;;;;;;5040714;28;20052;-88
2021/12/18 13:30:20;;;;;;;0.57;0.57;;;8.60;99.90;;;;;;5075861;28;20051;-87
2021/12/18 13:33:01;;;;;;;0.60;0.60;;;8.60;99.90;;;;;;5046952;28;20056;-88
2021/12/18 13:35:31;;;;;;;1.35;0.73;;;8.50;99.90;;;;;;5045989;28;20052;-88
2021/12/18 13:38:12;;;;;;;0.60;0.60;;;8.60;99.90;;;;;;5048628;28;20182;-88
2021/12/18 13:40:49;;;;;;;0.60;0.60;;;8.50;99.90;;;;;;5051582;28;20060;-88
2021/12/18 13:43:23;;;;;;;0.50;0.50;;;8.50;99.90;;;;;;5048199;28;20055;-88
2021/12/18 13:46:02;;;;;;;;;;;8.50;99.90;;;;;;5069668;28;20076;-87
2021/12/18 13:48:30;;;;;;;0.60;0.60;;;8.40;99.90;;;;;;5048055;28;19939;-87
2021/12/18 13:51:01;;;;;;;0.85;0.85;;;8.40;99.90;;;;;;5053205;28;20029;-88